Time;durP1;ratioP1;P1;durP2;ratioP2;P2;SDS_P1;SDS_P2;PMS_P1;PMS_P2;Temp;Humidity;BMP_temperature;BMP_pressure;BME280_temperature;BME280_humidity;BME280_pressure;Samples;Min_cycle;Max_cycle;Signal;HPM_P1;HPM_P2
2024/03/29 00:01:46;;;;;;;13.63;1.00;;;8.70;1.00;;;;;;5017135;28;20209;-81
2024/03/29 00:04:11;;;;;;;14.60;1.10;;;8.70;1.00;;;;;;5034837;28;20173;-80
2024/03/29 00:06:37;;;;;;;12.57;1.37;;;8.70;1.00;;;;;;5034784;28;20170;-79
2024/03/29 00:09:03;;;;;;;14.50;1.20;;;8.70;1.00;;;;;;5034870;28;20170;-81
2024/03/29 00:11:29;;;;;;;14.80;1.17;;;8.60;1.00;;;;;;5016982;28;20201;-81
2024/03/29 00:13:54;;;;;;;16.43;1.20;;;8.60;1.00;;;;;;5034785;28;20248;-81
2024/03/29 00:16:22;;;;;;;12.10;0.80;;;8.70;1.00;;;;;;5034884;28;20495;-80
2024/03/29 00:18:48;;;;;;;11.95;0.80;;;8.60;1.00;;;;;;5016761;28;20174;-81
2024/03/29 00:21:14;;;;;;;12.93;1.00;;;8.60;1.00;;;;;;5034481;28;20186;-81
2024/03/29 00:23:40;;;;;;;13.40;1.00;;;8.60;1.00;;;;;;5035268;28;20409;-81
2024/03/29 00:26:07;;;;;;;11.98;0.80;;;8.60;1.00;;;;;;5034432;28;20890;-81
2024/03/29 00:28:32;;;;;;;12.27;0.80;;;8.70;1.00;;;;;;5034642;28;20161;-81
2024/03/29 00:30:58;;;;;;;13.40;0.90;;;8.60;1.00;;;;;;5034470;28;20230;-81
2024/03/29 00:33:24;;;;;;;13.00;1.10;;;8.60;1.00;;;;;;5034460;28;20162;-81
2024/03/29 00:35:49;;;;;;;16.90;1.63;;;8.70;1.00;;;;;;5034286;28;20162;-81
2024/03/29 00:38:15;;;;;;;13.97;1.43;;;8.60;1.00;;;;;;5034322;28;20405;-81
2024/03/29 00:40:41;;;;;;;13.00;2.07;;;8.60;1.00;;;;;;5034166;28;20627;-80
2024/03/29 00:43:07;;;;;;;14.63;1.20;;;8.70;1.00;;;;;;5034342;28;20189;-81
2024/03/29 00:45:33;;;;;;;12.70;1.10;;;8.70;1.00;;;;;;5037443;28;20161;-81
2024/03/29 00:47:58;;;;;;;12.47;1.30;;;8.60;1.00;;;;;;5041192;28;20168;-80
2024/03/29 00:50:24;;;;;;;14.60;1.00;;;8.60;1.00;;;;;;5041087;28;20162;-81
2024/03/29 00:52:49;;;;;;;16.03;1.23;;;8.60;1.00;;;;;;5041244;28;20201;-81
2024/03/29 00:55:16;;;;;;;15.70;1.30;;;8.50;1.00;;;;;;5041334;28;20184;-81
2024/03/29 00:57:42;;;;;;;15.07;1.55;;;8.50;1.00;;;;;;5041502;28;20166;-81
2024/03/29 01:00:09;;;;;;;13.30;1.10;;;8.50;1.00;;;;;;5040859;28;20196;-81
2024/03/29 01:02:35;;;;;;;12.52;1.10;;;8.50;1.00;;;;;;5022578;28;20679;-81
2024/03/29 01:05:01;;;;;;;12.37;0.90;;;8.50;1.00;;;;;;5040824;28;20218;-80
2024/03/29 01:07:27;;;;;;;13.13;1.07;;;8.50;1.00;;;;;;5040986;28;20420;-81
2024/03/29 01:09:53;;;;;;;15.43;1.07;;;8.60;1.00;;;;;;5040717;28;20404;-81
2024/03/29 01:12:19;;;;;;;12.93;1.10;;;8.60;1.00;;;;;;5022971;28;20216;-81
2024/03/29 01:14:45;;;;;;;13.30;1.30;;;8.60;1.00;;;;;;5022867;28;20419;-81
2024/03/29 01:17:13;;;;;;;12.90;1.00;;;8.70;1.00;;;;;;5022870;28;20223;-81
2024/03/29 01:19:42;;;;;;;12.27;0.95;;;8.70;1.00;;;;;;5022780;28;20416;-81
2024/03/29 01:22:08;;;;;;;12.15;1.00;;;8.80;1.00;;;;;;5022598;28;20252;-81
2024/03/29 01:24:34;;;;;;;13.20;1.10;;;8.70;1.00;;;;;;5022889;28;20539;-80
2024/03/29 01:27:00;;;;;;;13.30;1.43;;;8.80;1.00;;;;;;5040635;28;20179;-80
2024/03/29 01:29:25;;;;;;;13.37;1.20;;;8.90;1.00;;;;;;5040298;28;20435;-80
2024/03/29 01:31:51;;;;;;;12.67;1.20;;;8.90;1.00;;;;;;5040489;28;20435;-81
2024/03/29 01:34:17;;;;;;;12.33;1.10;;;8.90;1.00;;;;;;5040702;28;20231;-81
2024/03/29 01:36:46;;;;;;;13.33;0.90;;;8.90;1.00;;;;;;5022746;28;20191;-80
2024/03/29 01:39:15;;;;;;;14.00;1.30;;;8.90;1.00;;;;;;5022817;28;20786;-80
2024/03/29 01:41:41;;;;;;;14.60;1.10;;;8.90;1.00;;;;;;5040544;28;20185;-81
2024/03/29 01:44:06;;;;;;;13.60;0.97;;;9.00;1.00;;;;;;5040471;28;20169;-81
2024/03/29 01:46:36;;;;;;;13.23;1.43;;;9.00;1.00;;;;;;5040879;28;20169;-80
2024/03/29 01:49:02;;;;;;;12.00;0.90;;;9.00;1.00;;;;;;5022338;28;20169;-80
2024/03/29 01:51:28;;;;;;;14.07;1.33;;;9.00;1.00;;;;;;5040034;28;20193;-80
2024/03/29 01:53:55;;;;;;;15.15;1.00;;;9.00;1.00;;;;;;5022773;28;20165;-81
2024/03/29 01:56:22;;;;;;;12.27;0.90;;;9.00;1.00;;;;;;5021273;28;20174;-81
2024/03/29 01:58:51;;;;;;;11.95;0.75;;;9.00;1.00;;;;;;5019615;28;20643;-80
2024/03/29 02:01:16;;;;;;;15.55;1.38;;;9.00;1.00;;;;;;5037449;28;20198;-81
2024/03/29 02:03:42;;;;;;;12.30;0.90;;;9.00;1.00;;;;;;5019464;28;20162;-80
2024/03/29 02:06:10;;;;;;;13.03;1.70;;;9.00;1.00;;;;;;5037356;28;20249;-81
2024/03/29 02:08:36;;;;;;;13.50;1.05;;;9.10;1.00;;;;;;5019377;28;20170;-81
2024/03/29 02:11:03;;;;;;;12.80;1.03;;;9.00;1.00;;;;;;5036849;28;20642;-81
2024/03/29 02:13:29;;;;;;;12.27;1.00;;;9.00;1.00;;;;;;5019335;28;20178;-80
2024/03/29 02:15:55;;;;;;;12.90;1.30;;;9.00;1.00;;;;;;5036762;28;20166;-80
2024/03/29 02:18:20;;;;;;;13.20;1.30;;;9.00;1.00;;;;;;5036922;28;20257;-80
2024/03/29 02:20:47;;;;;;;13.67;1.00;;;9.00;1.00;;;;;;5036787;28;20170;-80
2024/03/29 02:23:19;;;;;;;14.27;1.40;;;9.00;1.00;;;;;;5018742;28;20440;-79
2024/03/29 02:25:45;;;;;;;13.07;1.10;;;9.00;1.00;;;;;;5036862;28;20511;-80
2024/03/29 02:28:13;;;;;;;12.60;0.97;;;9.00;1.00;;;;;;5018730;28;20166;-79
2024/03/29 02:30:39;;;;;;;12.90;1.00;;;9.00;1.00;;;;;;5018870;28;20198;-79
2024/03/29 02:33:07;;;;;;;12.50;0.90;;;9.00;1.00;;;;;;5036670;28;20635;-80
2024/03/29 02:35:33;;;;;;;14.48;1.10;;;9.00;1.00;;;;;;5018385;28;20419;-80
2024/03/29 02:37:59;;;;;;;12.30;0.90;;;9.00;1.00;;;;;;5018829;28;20170;-81
2024/03/29 02:40:24;;;;;;;12.17;1.03;;;9.00;1.00;;;;;;5036612;28;20166;-79
2024/03/29 02:42:50;;;;;;;12.07;1.00;;;9.00;1.00;;;;;;5018506;28;20212;-81
2024/03/29 02:45:17;;;;;;;15.23;1.20;;;9.10;1.00;;;;;;5018310;28;20201;-80
2024/03/29 02:47:43;;;;;;;13.15;1.00;;;9.00;1.00;;;;;;5018447;28;20819;-80
2024/03/29 02:50:10;;;;;;;12.40;1.27;;;9.00;1.00;;;;;;5018529;28;20208;-81
2024/03/29 02:52:39;;;;;;;13.27;1.17;;;9.00;1.00;;;;;;5036054;28;20437;-81
2024/03/29 02:55:05;;;;;;;12.30;1.08;;;9.10;1.00;;;;;;5018113;28;20186;-81
2024/03/29 02:57:30;;;;;;;14.13;1.30;;;9.00;1.00;;;;;;5036216;28;20237;-81
2024/03/29 02:59:56;;;;;;;12.87;1.53;;;9.00;1.00;;;;;;5018473;28;20467;-81
2024/03/29 03:02:22;;;;;;;12.17;0.90;;;9.00;1.00;;;;;;5035753;28;20186;-79
2024/03/29 03:04:47;;;;;;;15.10;1.53;;;8.90;1.00;;;;;;5036081;28;20253;-80
2024/03/29 03:12:42;;;;;;;13.18;1.25;;;8.90;1.00;;;;;;5035686;28;20196;-81
2024/03/29 03:15:08;;;;;;;12.77;0.90;;;9.00;1.00;;;;;;5018690;28;20205;-80
2024/03/29 03:17:34;;;;;;;20.00;1.47;;;9.00;1.00;;;;;;5035496;28;20212;-81
2024/03/29 03:19:59;;;;;;;14.60;1.27;;;9.00;1.00;;;;;;5017694;28;20170;-80
2024/03/29 03:22:25;;;;;;;12.70;1.00;;;8.90;1.00;;;;;;5035733;28;20277;-81
2024/03/29 03:24:51;;;;;;;12.70;1.10;;;8.90;1.00;;;;;;5017817;28;20269;-80
2024/03/29 03:27:17;;;;;;;14.70;1.67;;;8.90;1.00;;;;;;5035700;28;20170;-81
2024/03/29 03:29:42;;;;;;;13.90;1.13;;;8.90;1.00;;;;;;5017709;28;20170;-80
2024/03/29 03:32:08;;;;;;;13.80;1.43;;;8.90;1.00;;;;;;5035213;28;20432;-81
2024/03/29 03:34:34;;;;;;;13.53;1.17;;;8.90;1.00;;;;;;5035723;28;20169;-81
2024/03/29 03:37:00;;;;;;;12.50;1.13;;;8.80;1.00;;;;;;5017467;28;20223;-80
2024/03/29 03:39:25;;;;;;;13.10;1.00;;;8.90;1.00;;;;;;5018204;28;20235;-80
2024/03/29 03:41:51;;;;;;;12.67;1.40;;;8.80;1.00;;;;;;5035636;28;20205;-80
2024/03/29 03:44:17;;;;;;;12.60;1.23;;;8.90;1.00;;;;;;5035003;28;20162;-80
2024/03/29 03:46:42;;;;;;;15.50;1.17;;;8.90;1.00;;;;;;5018262;28;20253;-81
2024/03/29 03:49:08;;;;;;;17.27;1.57;;;8.90;1.00;;;;;;5035266;28;20166;-81
2024/03/29 03:51:34;;;;;;;12.43;1.40;;;9.00;1.00;;;;;;5017854;28;20348;-81
2024/03/29 03:53:59;;;;;;;17.00;1.20;;;9.00;1.00;;;;;;5017731;28;20261;-81
2024/03/29 03:56:25;;;;;;;13.10;1.80;;;9.00;1.00;;;;;;5017057;28;20228;-80
2024/03/29 03:58:51;;;;;;;14.60;1.17;;;9.00;1.00;;;;;;5035146;28;20650;-80
2024/03/29 04:01:16;;;;;;;14.00;1.10;;;9.00;1.00;;;;;;5034758;28;20182;-80
2024/03/29 04:03:42;;;;;;;12.13;0.90;;;9.00;1.00;;;;;;5035116;28;20232;-80
2024/03/29 04:06:07;;;;;;;13.10;1.00;;;9.00;1.00;;;;;;5017101;28;20170;-81
2024/03/29 04:08:33;;;;;;;12.90;1.00;;;9.00;1.00;;;;;;5035037;28;20558;-81
2024/03/29 04:11:03;;;;;;;12.27;1.00;;;9.00;1.00;;;;;;5035083;28;20261;-80
2024/03/29 04:13:28;;;;;;;12.60;1.25;;;9.00;1.00;;;;;;5017305;28;20173;-81
2024/03/29 04:16:01;;;;;;;13.57;1.23;;;9.00;1.00;;;;;;5035413;28;20166;-81
2024/03/29 04:18:27;;;;;;;13.38;1.40;;;9.00;1.00;;;;;;5035510;28;20164;-80
2024/03/29 04:21:00;;;;;;;13.63;1.33;;;9.00;1.00;;;;;;5017809;28;20173;-81
2024/03/29 04:23:26;;;;;;;15.65;1.48;;;9.00;1.00;;;;;;5017473;28;20494;-80
2024/03/29 04:25:56;;;;;;;12.95;1.15;;;9.00;1.00;;;;;;5035278;28;20681;-81
2024/03/29 04:28:23;;;;;;;12.70;1.02;;;9.00;1.00;;;;;;5017989;28;20177;-80
2024/03/29 04:30:59;;;;;;;12.95;1.13;;;9.00;1.00;;;;;;5016350;28;20170;-80
2024/03/29 04:33:25;;;;;;;14.93;1.20;;;9.00;1.00;;;;;;5034996;28;20244;-80
2024/03/29 04:35:56;;;;;;;12.95;1.13;;;9.00;1.00;;;;;;5034842;28;20235;-81
2024/03/29 04:38:22;;;;;;;12.50;1.30;;;9.00;1.00;;;;;;5034024;28;20193;-81
2024/03/29 04:40:49;;;;;;;13.07;1.13;;;9.00;1.00;;;;;;5034378;28;20170;-80
2024/03/29 04:43:15;;;;;;;15.60;1.05;;;9.00;1.00;;;;;;5034082;28;20532;-81
2024/03/29 04:45:40;;;;;;;15.13;1.10;;;8.90;1.00;;;;;;5034150;28;20228;-80
2024/03/29 04:48:06;;;;;;;12.37;1.20;;;9.00;1.00;;;;;;5016477;28;20166;-80
2024/03/29 04:50:32;;;;;;;13.18;1.42;;;9.00;1.00;;;;;;5034106;28;20217;-80
2024/03/29 04:52:57;;;;;;;12.10;0.97;;;9.00;1.00;;;;;;5034287;28;20228;-81
2024/03/29 04:55:23;;;;;;;15.33;1.37;;;9.00;1.00;;;;;;5034045;28;20647;-80
2024/03/29 04:57:49;;;;;;;13.37;1.37;;;9.00;1.00;;;;;;5033926;28;20200;-80
2024/03/29 05:00:14;;;;;;;12.80;1.30;;;9.00;1.00;;;;;;5034035;28;20293;-80
2024/03/29 05:02:40;;;;;;;14.60;1.27;;;9.00;1.00;;;;;;5033767;28;20616;-80
2024/03/29 05:05:06;;;;;;;14.47;1.10;;;9.00;1.00;;;;;;5034131;28;20701;-80
2024/03/29 05:07:31;;;;;;;12.73;1.13;;;9.00;1.00;;;;;;5034011;28;20162;-80
2024/03/29 05:09:57;;;;;;;14.07;1.20;;;9.00;1.00;;;;;;5034003;28;20173;-80
2024/03/29 05:12:23;;;;;;;12.90;1.30;;;9.00;1.00;;;;;;5033582;28;20186;-81
2024/03/29 05:14:49;;;;;;;13.53;1.37;;;9.00;1.00;;;;;;5016023;28;20574;-79
2024/03/29 05:17:15;;;;;;;12.90;1.20;;;9.00;1.00;;;;;;5033802;28;20635;-81
2024/03/29 05:19:41;;;;;;;13.30;1.10;;;9.00;1.00;;;;;;5034208;28;20185;-81
2024/03/29 05:22:06;;;;;;;14.80;1.50;;;9.00;1.00;;;;;;5033425;28;20659;-80
2024/03/29 05:24:32;;;;;;;13.83;1.50;;;9.10;1.00;;;;;;5016089;28;20162;-80
2024/03/29 05:26:57;;;;;;;14.10;1.57;;;9.00;1.00;;;;;;5034074;28;20197;-80
2024/03/29 05:29:23;;;;;;;12.40;1.27;;;9.00;1.00;;;;;;5033997;28;20666;-80
2024/03/29 05:31:49;;;;;;;15.00;1.20;;;9.10;1.00;;;;;;5034055;28;20194;-80
2024/03/29 05:34:14;;;;;;;12.80;1.03;;;9.10;1.00;;;;;;5037588;28;20198;-81
2024/03/29 05:36:40;;;;;;;13.20;1.33;;;9.10;1.00;;;;;;5019899;28;20173;-81
2024/03/29 05:39:06;;;;;;;14.13;1.30;;;9.10;1.00;;;;;;5019679;28;20303;-80
2024/03/29 05:41:32;;;;;;;13.87;1.40;;;9.10;1.00;;;;;;5037153;28;20462;-80
2024/03/29 05:43:58;;;;;;;13.30;1.10;;;9.10;1.00;;;;;;5037302;28;20173;-80
2024/03/29 05:46:24;;;;;;;12.80;1.30;;;9.10;1.00;;;;;;5037252;28;20533;-80
2024/03/29 05:48:49;;;;;;;13.20;1.43;;;9.10;1.00;;;;;;5036849;28;20158;-79
2024/03/29 05:51:15;;;;;;;15.70;1.43;;;9.10;1.00;;;;;;5037260;28;20182;-79
2024/03/29 05:53:41;;;;;;;13.60;1.20;;;9.10;1.00;;;;;;5019273;28;20277;-80
2024/03/29 05:56:07;;;;;;;13.40;1.00;;;9.10;1.00;;;;;;5019133;28;20172;-80
2024/03/29 05:58:34;;;;;;;12.80;1.10;;;9.10;1.00;;;;;;5019256;28;20170;-80
2024/03/29 06:00:59;;;;;;;15.07;1.20;;;9.20;1.00;;;;;;5036832;28;20255;-81
2024/03/29 06:03:25;;;;;;;13.20;1.20;;;9.10;1.00;;;;;;5036711;28;20185;-80
2024/03/29 06:05:51;;;;;;;14.30;1.60;;;9.10;1.00;;;;;;5037040;28;20170;-81
2024/03/29 06:08:17;;;;;;;15.67;1.40;;;9.10;1.00;;;;;;5037350;28;20248;-79
2024/03/29 06:10:43;;;;;;;12.95;1.30;;;9.10;1.00;;;;;;5019171;28;20169;-80
2024/03/29 06:13:17;;;;;;;13.37;1.20;;;9.20;5.60;;;;;;5036685;28;20177;-80
2024/03/29 06:18:27;;;;;;;12.60;1.25;;;9.20;7.70;;;;;;5037122;28;20593;-80
2024/03/29 06:20:53;;;;;;;14.30;1.57;;;9.30;10.20;;;;;;5037085;28;20166;-80
2024/03/29 06:23:18;;;;;;;13.27;1.23;;;9.40;9.60;;;;;;5036843;28;20268;-80
2024/03/29 06:25:45;;;;;;;15.60;1.50;;;9.40;14.00;;;;;;5018527;28;20173;-80
2024/03/29 06:28:10;;;;;;;17.17;1.48;;;9.40;12.90;;;;;;5036786;28;20692;-80
2024/03/29 06:30:36;;;;;;;12.73;1.30;;;9.50;16.30;;;;;;5019122;28;20253;-80
2024/03/29 06:33:03;;;;;;;13.10;1.23;;;9.50;20.50;;;;;;5036896;28;20627;-80
2024/03/29 06:35:29;;;;;;;12.60;1.15;;;9.50;24.80;;;;;;5036325;28;20166;-80
2024/03/29 06:37:56;;;;;;;15.07;1.23;;;9.50;25.70;;;;;;5018319;28;20547;-81
2024/03/29 06:40:21;;;;;;;14.57;1.20;;;9.50;24.50;;;;;;5036573;28;20396;-80
2024/03/29 06:42:47;;;;;;;12.67;1.00;;;9.60;27.00;;;;;;5035784;28;20532;-79
2024/03/29 06:45:12;;;;;;;15.07;1.23;;;9.60;30.10;;;;;;5018509;28;20162;-81
2024/03/29 06:47:40;;;;;;;13.23;1.17;;;9.60;31.80;;;;;;5037051;28;20158;-80
2024/03/29 06:50:06;;;;;;;13.05;1.10;;;9.70;35.10;;;;;;5018606;28;20257;-81
2024/03/29 06:52:32;;;;;;;14.20;1.52;;;9.80;38.20;;;;;;5083447;23;20719;-82
2024/03/29 06:54:57;;;;;;;12.47;1.10;;;9.80;48.40;;;;;;5020155;28;20170;-81
2024/03/29 06:57:25;;;;;;;14.27;1.77;;;9.90;48.70;;;;;;5019929;28;20159;-82
2024/03/29 06:59:58;;;;;;;12.90;1.15;;;10.00;52.50;;;;;;5020267;28;20155;-82
2024/03/29 07:02:24;;;;;;;12.38;1.10;;;10.10;51.20;;;;;;5018434;28;20206;-82
2024/03/29 07:04:50;;;;;;;16.23;1.60;;;10.20;51.70;;;;;;5020413;28;20171;-82
2024/03/29 07:07:15;;;;;;;13.33;1.60;;;10.30;47.60;;;;;;5020222;28;20171;-81
2024/03/29 07:09:41;;;;;;;13.07;1.10;;;10.30;53.10;;;;;;5020474;28;20241;-82
2024/03/29 07:12:07;;;;;;;12.20;1.00;;;10.40;59.30;;;;;;5020239;28;20194;-81
2024/03/29 07:14:33;;;;;;;15.20;1.80;;;10.40;62.50;;;;;;5002438;28;20174;-81
2024/03/29 07:16:59;;;;;;;12.90;1.15;;;10.40;60.90;;;;;;5150002;22;20297;-84
2024/03/29 07:19:25;;;;;;;14.00;1.10;;;10.40;63.20;;;;;;5113217;22;20232;-83
2024/03/29 07:21:53;;;;;;;14.00;1.23;;;10.50;69.80;;;;;;5041511;28;20229;-84
2024/03/29 07:24:20;;;;;;;12.60;1.00;;;10.50;77.00;;;;;;5041963;28;20162;-84
2024/03/29 07:26:46;;;;;;;16.10;1.42;;;10.60;78.30;;;;;;5024912;28;20182;-83
2024/03/29 07:29:12;;;;;;;12.87;1.00;;;10.70;79.20;;;;;;5023576;28;20162;-84
2024/03/29 07:31:37;;;;;;;12.43;1.03;;;10.80;74.60;;;;;;5041917;28;20231;-84
2024/03/29 07:34:03;;;;;;;13.03;1.00;;;10.90;72.70;;;;;;5041757;28;20607;-84
2024/03/29 07:36:33;;;;;;;12.70;1.00;;;11.00;68.70;;;;;;5040670;28;20639;-84
2024/03/29 07:39:00;;;;;;;12.32;1.05;;;11.10;66.10;;;;;;5040856;28;20228;-84
2024/03/29 07:41:26;;;;;;;12.35;1.00;;;11.20;61.30;;;;;;5040783;28;20186;-84
2024/03/29 07:43:59;;;;;;;12.30;0.93;;;11.20;54.30;;;;;;5023132;28;20169;-83
2024/03/29 07:46:30;;;;;;;12.80;1.00;;;11.30;57.80;;;;;;5040250;28;20377;-83
2024/03/29 07:48:56;;;;;;;13.77;1.05;;;11.30;57.90;;;;;;5040851;28;20558;-84
2024/03/29 07:51:22;;;;;;;12.23;0.90;;;11.40;55.30;;;;;;5022570;23;20214;-85
2024/03/29 07:54:50;;;;;;;12.77;0.90;;;11.50;55.90;;;;;;5019933;28;20150;-85
2024/03/29 07:57:17;;;;;;;12.20;1.02;;;11.60;49.50;;;;;;4989096;28;20416;-84
2024/03/29 07:59:42;;;;;;;12.93;1.02;;;11.60;42.70;;;;;;5020141;28;20197;-85
2024/03/29 08:02:08;;;;;;;12.17;0.90;;;11.70;38.00;;;;;;5002248;28;20202;-85
2024/03/29 08:04:34;;;;;;;12.80;0.87;;;11.70;44.50;;;;;;5019858;28;20190;-85
2024/03/29 08:07:00;;;;;;;12.43;1.10;;;11.80;43.70;;;;;;5019508;28;20170;-85
2024/03/29 08:09:26;;;;;;;12.23;0.83;;;11.90;38.10;;;;;;5020105;28;20587;-85
2024/03/29 08:11:51;;;;;;;12.67;0.90;;;12.00;37.50;;;;;;5002029;28;20305;-85
2024/03/29 08:14:17;;;;;;;13.43;1.10;;;12.00;35.10;;;;;;5019329;28;20257;-85
2024/03/29 08:16:44;;;;;;;12.70;1.00;;;12.20;33.20;;;;;;5019703;28;20202;-85
2024/03/29 08:19:10;;;;;;;12.23;0.97;;;12.30;26.80;;;;;;5019374;28;20173;-85
2024/03/29 08:21:36;;;;;;;12.17;1.00;;;12.40;28.60;;;;;;5018887;28;20445;-85
2024/03/29 08:24:04;;;;;;;15.35;0.98;;;12.50;19.90;;;;;;5019675;28;20155;-85
2024/03/29 08:26:30;;;;;;;12.38;0.90;;;12.60;20.20;;;;;;5001766;28;20525;-85
2024/03/29 08:28:56;;;;;;;14.45;1.15;;;12.70;20.70;;;;;;5020089;28;20185;-85
2024/03/29 08:31:21;;;;;;;12.63;0.90;;;12.70;11.40;;;;;;5019676;28;20186;-85
2024/03/29 08:33:48;;;;;;;12.47;0.93;;;12.70;9.40;;;;;;5019862;28;20162;-85
2024/03/29 08:36:13;;;;;;;13.43;1.05;;;12.80;11.90;;;;;;5019285;28;20155;-85
2024/03/29 08:38:42;;;;;;;12.30;0.80;;;12.80;2.20;;;;;;5019531;28;20200;-85
2024/03/29 08:41:08;;;;;;;12.03;0.80;;;12.80;6.40;;;;;;5019470;28;20186;-85
2024/03/29 08:43:34;;;;;;;13.73;0.90;;;12.80;7.80;;;;;;5019249;28;20890;-85
2024/03/29 08:46:00;;;;;;;13.10;1.00;;;12.80;6.20;;;;;;5018777;28;20405;-84
2024/03/29 08:48:26;;;;;;;12.20;0.80;;;12.90;2.00;;;;;;5019710;28;20425;-85
2024/03/29 08:50:54;;;;;;;15.50;1.27;;;13.00;1.00;;;;;;5001308;28;20170;-85
2024/03/29 08:53:21;;;;;;;12.15;0.90;;;13.00;1.00;;;;;;5019353;28;20394;-85
2024/03/29 08:55:48;;;;;;;13.10;1.02;;;13.00;1.00;;;;;;5001352;28;20171;-85
2024/03/29 08:58:14;;;;;;;13.07;0.90;;;13.00;1.00;;;;;;5001222;28;20174;-85
2024/03/29 09:00:39;;;;;;;12.30;0.73;;;13.10;1.00;;;;;;5018734;28;20739;-85
2024/03/29 09:03:05;;;;;;;12.47;0.80;;;13.20;1.00;;;;;;5018509;28;20886;-85
2024/03/29 09:05:31;;;;;;;12.90;1.40;;;13.30;1.00;;;;;;5019144;28;20213;-85
2024/03/29 09:07:57;;;;;;;12.60;1.20;;;13.40;1.00;;;;;;5005715;28;20405;-84
2024/03/29 09:10:26;;;;;;;12.07;0.80;;;13.50;1.00;;;;;;5022721;28;20443;-84
2024/03/29 09:12:52;;;;;;;13.10;1.00;;;13.70;1.00;;;;;;5021239;28;20182;-85
2024/03/29 09:15:18;;;;;;;12.23;0.80;;;13.80;1.00;;;;;;5022640;28;20386;-85
2024/03/29 09:17:44;;;;;;;12.30;0.93;;;13.90;1.00;;;;;;5021950;28;20416;-86
2024/03/29 09:20:11;;;;;;;12.13;0.80;;;13.90;1.00;;;;;;5022649;28;20424;-85
2024/03/29 09:22:37;;;;;;;12.60;1.17;;;14.00;1.00;;;;;;5005260;28;20886;-85
2024/03/29 09:25:05;;;;;;;12.90;0.83;;;14.00;1.00;;;;;;5023737;28;20406;-86
2024/03/29 09:27:34;;;;;;;13.80;1.00;;;14.10;1.00;;;;;;5023612;28;20911;-86
2024/03/29 09:29:59;;;;;;;12.70;0.90;;;14.30;1.00;;;;;;5023343;28;20445;-84
2024/03/29 09:32:25;;;;;;;12.20;0.80;;;14.30;1.00;;;;;;5022796;28;20928;-85
2024/03/29 09:34:51;;;;;;;12.23;0.77;;;14.30;1.00;;;;;;5023325;28;20163;-86
2024/03/29 09:37:17;;;;;;;13.37;0.80;;;14.40;1.00;;;;;;5023471;28;20169;-85
2024/03/29 09:39:43;;;;;;;12.17;0.80;;;14.40;1.00;;;;;;5023035;28;20163;-85
2024/03/29 09:42:15;;;;;;;12.63;0.70;;;14.50;1.00;;;;;;5022837;28;20547;-85
2024/03/29 09:44:45;;;;;;;13.37;1.00;;;14.50;1.00;;;;;;5021633;28;20440;-86
2024/03/29 09:47:13;;;;;;;12.07;0.80;;;14.60;1.00;;;;;;5005163;28;20417;-85
2024/03/29 09:49:44;;;;;;;12.70;0.90;;;14.70;1.00;;;;;;5023388;28;20740;-86
2024/03/29 09:52:16;;;;;;;12.17;0.70;;;14.70;1.00;;;;;;5023029;28;21023;-85
2024/03/29 09:54:42;;;;;;;12.40;0.90;;;14.80;1.00;;;;;;5023005;28;20441;-85
2024/03/29 09:57:09;;;;;;;11.90;0.67;;;14.90;1.00;;;;;;5023495;28;20401;-85
2024/03/29 09:59:35;;;;;;;12.37;0.90;;;14.80;1.00;;;;;;5005555;28;20177;-85
2024/03/29 10:02:15;;;;;;;12.77;0.80;;;14.90;1.00;;;;;;5022111;28;20532;-85
2024/03/29 10:04:43;;;;;;;11.97;0.80;;;14.80;1.00;;;;;;5023369;28;20151;-86
2024/03/29 10:07:09;;;;;;;12.47;0.70;;;15.00;1.00;;;;;;5006405;28;20409;-86
2024/03/29 10:09:36;;;;;;;12.73;0.80;;;14.90;1.00;;;;;;5022762;28;20429;-85
2024/03/29 10:12:02;;;;;;;12.07;0.70;;;14.80;1.00;;;;;;5022557;28;20429;-85
2024/03/29 10:14:31;;;;;;;12.10;0.70;;;14.70;1.00;;;;;;5022616;28;20409;-85
2024/03/29 10:16:58;;;;;;;13.00;0.93;;;14.80;1.00;;;;;;5022913;28;20410;-86
2024/03/29 10:19:24;;;;;;;12.93;1.00;;;14.90;1.00;;;;;;5022402;28;20432;-86
2024/03/29 10:21:50;;;;;;;13.20;0.90;;;14.90;1.00;;;;;;5186908;23;20477;-86
2024/03/29 10:24:17;;;;;;;14.33;1.07;;;15.10;1.00;;;;;;5065896;22;20953;-85
2024/03/29 10:26:46;;;;;;;12.47;0.80;;;15.00;1.00;;;;;;5193263;22;20454;-84
2024/03/29 10:29:12;;;;;;;12.47;0.83;;;14.90;1.00;;;;;;5104402;23;21074;-85
2024/03/29 10:31:38;;;;;;;12.23;0.80;;;15.00;1.00;;;;;;5022776;28;20512;-85
2024/03/29 10:34:08;;;;;;;12.23;0.80;;;15.10;1.00;;;;;;5022665;28;20166;-84
2024/03/29 10:36:35;;;;;;;12.50;0.80;;;15.00;1.00;;;;;;5022067;28;20162;-84
2024/03/29 10:39:10;;;;;;;12.50;0.80;;;15.00;1.00;;;;;;5022413;28;20398;-84
2024/03/29 10:41:43;;;;;;;12.27;0.80;;;15.00;1.00;;;;;;5022666;28;20417;-84
2024/03/29 10:44:11;;;;;;;12.20;0.73;;;15.20;1.00;;;;;;5021841;28;20901;-84
2024/03/29 10:46:39;;;;;;;12.40;0.90;;;15.10;1.00;;;;;;5021916;28;20374;-85
2024/03/29 10:49:09;;;;;;;13.10;1.17;;;15.20;1.00;;;;;;5021527;28;20404;-84
2024/03/29 10:51:39;;;;;;;12.77;0.97;;;15.20;1.00;;;;;;5003509;28;20430;-85
2024/03/29 10:54:06;;;;;;;12.40;0.77;;;15.10;1.00;;;;;;5022278;28;20485;-85
2024/03/29 10:56:34;;;;;;;13.40;0.90;;;15.10;1.00;;;;;;5022454;28;20433;-85
2024/03/29 10:59:22;;;;;;;12.07;0.80;;;15.00;1.00;;;;;;5021961;28;20802;-84
2024/03/29 11:01:55;;;;;;;13.80;0.90;;;15.20;1.00;;;;;;5021401;28;20446;-84
2024/03/29 11:04:27;;;;;;;14.40;0.80;;;15.10;1.00;;;;;;5004114;28;20464;-83
2024/03/29 11:06:57;;;;;;;11.97;0.70;;;15.30;1.00;;;;;;5004174;28;20404;-83
2024/03/29 11:09:24;;;;;;;12.60;0.90;;;15.20;1.00;;;;;;5021995;28;20382;-84
2024/03/29 11:11:54;;;;;;;13.53;0.80;;;15.20;1.00;;;;;;5004326;28;20442;-83
2024/03/29 11:14:26;;;;;;;12.80;0.90;;;15.30;1.00;;;;;;5021639;28;20406;-83
2024/03/29 11:16:57;;;;;;;13.13;0.97;;;15.40;1.00;;;;;;5020958;28;20383;-84
2024/03/29 11:19:23;;;;;;;12.70;1.00;;;15.60;1.00;;;;;;5021109;28;20396;-84
2024/03/29 11:21:49;;;;;;;12.33;0.90;;;15.80;1.00;;;;;;5021699;28;20477;-84
2024/03/29 11:24:19;;;;;;;12.87;0.80;;;15.90;1.00;;;;;;5003100;28;20968;-84
2024/03/29 11:26:47;;;;;;;12.30;0.73;;;15.90;1.00;;;;;;5021462;28;20383;-84
2024/03/29 11:32:50;;;;;;;11.93;0.70;;;16.10;1.00;;;;;;5009152;28;20444;-83
2024/03/29 11:35:16;;;;;;;11.77;0.60;;;16.00;1.00;;;;;;5021154;28;20425;-84
2024/03/29 11:37:42;;;;;;;11.90;0.63;;;16.00;1.00;;;;;;5021580;28;20401;-84
2024/03/29 11:40:11;;;;;;;11.83;0.60;;;15.90;1.00;;;;;;5002674;28;20413;-83
2024/03/29 11:42:52;;;;;;;11.97;0.70;;;15.70;1.00;;;;;;5021156;28;20198;-84
2024/03/29 11:45:18;;;;;;;11.97;0.70;;;15.60;1.00;;;;;;5020509;28;20408;-84
2024/03/29 11:47:45;;;;;;;13.60;0.93;;;15.50;1.00;;;;;;5020125;28;20402;-84
2024/03/29 11:50:12;;;;;;;11.93;0.70;;;15.40;1.00;;;;;;5002637;28;20477;-84
2024/03/29 11:52:39;;;;;;;12.53;0.90;;;15.50;1.00;;;;;;5020975;28;20424;-85
2024/03/29 11:55:05;;;;;;;11.73;0.60;;;15.60;1.00;;;;;;5021205;28;20441;-83
2024/03/29 11:57:34;;;;;;;11.93;0.70;;;15.40;1.00;;;;;;5020989;28;20413;-84
2024/03/29 11:59:59;;;;;;;11.87;0.70;;;15.30;1.00;;;;;;5020116;28;20512;-84
2024/03/29 12:02:25;;;;;;;11.90;0.60;;;15.30;1.00;;;;;;5002430;28;20456;-84
2024/03/29 12:04:51;;;;;;;11.77;0.60;;;15.20;1.00;;;;;;5002253;28;20221;-83
2024/03/29 12:07:17;;;;;;;11.97;0.80;;;15.20;1.00;;;;;;5020234;28;20174;-84
2024/03/29 12:09:43;;;;;;;12.00;0.77;;;15.10;1.00;;;;;;5019844;28;20167;-83
2024/03/29 12:12:10;;;;;;;12.20;0.80;;;15.00;1.00;;;;;;5019902;28;20182;-84
2024/03/29 12:14:37;;;;;;;11.83;0.60;;;15.10;1.00;;;;;;5002167;28;20524;-84
2024/03/29 12:17:12;;;;;;;11.83;0.70;;;15.10;1.00;;;;;;5020515;28;20413;-84
2024/03/29 12:19:41;;;;;;;11.83;0.60;;;15.10;1.00;;;;;;5003134;28;20766;-84
2024/03/29 12:22:08;;;;;;;12.17;0.70;;;15.10;1.00;;;;;;5001857;28;20449;-84
2024/03/29 12:24:34;;;;;;;11.83;0.60;;;15.10;1.00;;;;;;5020655;28;20410;-84
2024/03/29 12:26:59;;;;;;;13.07;0.60;;;15.20;1.00;;;;;;5020143;28;20386;-83
2024/03/29 12:29:26;;;;;;;12.97;0.70;;;15.30;1.00;;;;;;5020586;28;20178;-83
2024/03/29 12:32:01;;;;;;;11.87;0.63;;;15.40;1.00;;;;;;5019911;28;20187;-84
2024/03/29 12:34:28;;;;;;;11.93;0.60;;;15.30;1.00;;;;;;5021157;28;20428;-83
2024/03/29 12:36:53;;;;;;;12.40;0.70;;;15.50;1.00;;;;;;5019961;28;20406;-83
2024/03/29 12:39:19;;;;;;;11.87;0.60;;;15.70;1.00;;;;;;5020381;28;20393;-84
2024/03/29 12:41:47;;;;;;;12.20;0.80;;;15.60;1.00;;;;;;5018829;28;20237;-83
2024/03/29 12:44:13;;;;;;;12.03;0.70;;;15.60;1.00;;;;;;5001750;28;20618;-83
2024/03/29 12:46:38;;;;;;;11.87;0.60;;;15.60;1.00;;;;;;5019433;28;20391;-84
2024/03/29 12:49:04;;;;;;;11.93;0.60;;;15.50;1.00;;;;;;5019549;28;20744;-84
2024/03/29 12:51:34;;;;;;;12.10;0.70;;;15.40;1.00;;;;;;5020240;28;20659;-83
2024/03/29 12:54:04;;;;;;;12.63;0.90;;;15.40;1.00;;;;;;5103015;22;20581;-83
2024/03/29 12:56:31;;;;;;;11.97;0.60;;;15.50;1.00;;;;;;5034946;28;20381;-84
2024/03/29 12:58:57;;;;;;;12.50;0.80;;;15.50;1.00;;;;;;5034936;28;20429;-83
2024/03/29 13:01:23;;;;;;;11.97;0.60;;;15.50;1.00;;;;;;5035205;28;20792;-84